Hovedside
METAR-TAF:

METAR-TAF

Lufthavner :

Pittsburgh internasjonale lufthavn

Pittsburgh, Pennsylvania, USA

breddegrad: 40-30-14N, lengdegrad: 080-15-59W, høyde over havet: 366 m

Gjeldene værobservasjon

Denne rapporten ble laget for 44 minutter siden, klokken 10:51 UTC
Vind 3 kt fra Øst-sørøst
Temperatur 5°C
Luftfuktighet 81%
Trykk 1030 hPa
Sikt: 16.1 km
Skyfri himmel

METAR: KPIT 201051Z 11003KT 10SM CLR 05/02 A3043 RMK AO2 SLP314 T00500017

Tid: 07:35 (11:35 UTC)

Varsel

Denne rapporten ble laget for 2 timer og 40 minutter siden, klokken 08:55 UTC
Varsel gyldig fra 20. klokken 09 UTC til 21. klokken 12 UTC
Vind 5 kt fra Øst-nordøst
Sikt: 10 km
Skyfri himmel

TAF: KPIT 200855Z 2009/2112 06005KT P6SM SKC

Værobservasjoner og værvarsel for over 4000 flyplasser (METAR- og TAF-rapporter).

Tilgjengelige stasjoner er representert av de røde og gule prikkene på kartet.

Hold musepekeren over prikken for å se navnet på stasjonen.

Klikk så for å se værobservasjoner og -varsler.

For å forandre kartet kan du klikke på den grønne knappen med svart kryss for å zoome inn, på den grønne knappen med strek for å zoome ut, eller på de grønne pilene for å se tilstøtende kart.


METAR-TAF: